Time,TemperatureF,DewpointF,PressureIn,WindDirection,WindDirectionDegrees,WindSpeedMPH,WindSpeedGustMPH,Humidity,HourlyPrecipIn,Conditions,Clouds,dailyrainin,SoftwareType,DateUTC
2013-03-23 00:15:00,22.8,20.8,29.62,ESE,112,0.0,-999.0,92,-99.99,,,0.00,Acu-Link.com,2013-03-23 04:15:00,
2013-03-23 00:30:00,23.0,21.3,29.62,ESE,112,0.0,-999.0,93,-99.99,,,0.00,Acu-Link.com,2013-03-23 04:30:00,
2013-03-23 00:45:00,22.8,21.3,29.61,ESE,112,0.0,-999.0,94,-99.99,,,0.00,Acu-Link.com,2013-03-23 04:45:00,
2013-03-23 01:00:00,22.1,20.6,29.62,ESE,112,0.0,-999.0,94,-99.99,,,0.00,Acu-Link.com,2013-03-23 05:00:00,
2013-03-23 01:15:00,21.9,20.7,29.62,SE,135,0.0,-999.0,95,-99.99,,,0.00,Acu-Link.com,2013-03-23 05:15:00,
2013-03-23 01:30:00,21.4,20.2,29.61,SE,135,0.0,-999.0,95,-99.99,,,0.00,Acu-Link.com,2013-03-23 05:30:00,
2013-03-23 01:45:00,21.0,19.8,29.62,SE,135,0.0,-999.0,95,-99.99,,,0.00,Acu-Link.com,2013-03-23 05:45:00,
2013-03-23 02:00:00,21.4,20.2,29.61,SE,135,0.0,-999.0,95,-99.99,,,0.00,Acu-Link.com,2013-03-23 06:00:00,
2013-03-23 02:15:00,21.2,20.0,29.61,SE,135,0.0,-999.0,95,-99.99,,,0.00,Acu-Link.com,2013-03-23 06:15:00,
2013-03-23 02:30:00,21.4,20.2,29.60,SE,135,0.0,-999.0,95,-99.99,,,0.00,Acu-Link.com,2013-03-23 06:30:00,
2013-03-23 02:46:00,21.7,20.2,29.60,SE,135,0.0,-999.0,94,-99.99,,,0.00,Acu-Link.com,2013-03-23 06:46:00,
2013-03-23 03:31:00,22.8,21.1,29.60,SW,225,0.0,-999.0,93,-99.99,,,0.00,Acu-Link.com,2013-03-23 07:31:00,
2013-03-23 03:46:00,22.8,21.1,29.60,WSW,247,0.0,-999.0,93,-99.99,,,0.00,Acu-Link.com,2013-03-23 07:46:00,
2013-03-23 04:01:00,22.8,21.1,29.59,WSW,247,0.0,-999.0,93,-99.99,,,0.00,Acu-Link.com,2013-03-23 08:01:00,
2013-03-23 04:16:00,23.0,21.0,29.59,WSW,247,0.0,-999.0,92,-99.99,,,0.00,Acu-Link.com,2013-03-23 08:16:00,
2013-03-23 04:32:00,23.2,21.0,29.59,WSW,247,0.0,-999.0,91,-99.99,,,0.00,Acu-Link.com,2013-03-23 08:32:00,
2013-03-23 04:47:00,23.5,21.0,29.59,WSW,247,0.0,-999.0,90,-99.99,,,0.00,Acu-Link.com,2013-03-23 08:47:00,
2013-03-23 05:02:00,23.7,21.2,29.59,WSW,247,0.0,-999.0,90,-99.99,,,0.00,Acu-Link.com,2013-03-23 09:02:00,
2013-03-23 05:17:00,24.4,21.6,29.59,WSW,247,0.0,-999.0,89,-99.99,,,0.00,Acu-Link.com,2013-03-23 09:17:00,
2013-03-23 05:32:00,25.0,21.1,29.59,WSW,247,0.0,-999.0,85,-99.99,,,0.00,Acu-Link.com,2013-03-23 09:32:00,
2013-03-23 05:47:00,25.3,21.7,29.59,WSW,247,0.0,-999.0,86,-99.99,,,0.00,Acu-Link.com,2013-03-23 09:47:00,
2013-03-23 06:02:00,24.8,21.8,29.59,SSE,157,0.0,-999.0,88,-99.99,,,0.00,Acu-Link.com,2013-03-23 10:02:00,
2013-03-23 06:17:00,24.4,21.1,29.58,SSE,157,0.0,-999.0,87,-99.99,,,0.00,Acu-Link.com,2013-03-23 10:17:00,
2013-03-23 06:32:00,24.1,21.1,29.58,NW,315,0.0,-999.0,88,-99.99,,,0.00,Acu-Link.com,2013-03-23 10:32:00,
2013-03-23 06:47:00,24.3,21.0,29.57,SW,225,0.0,-999.0,87,-99.99,,,0.00,Acu-Link.com,2013-03-23 10:47:00,
2013-03-23 07:02:00,25.0,20.3,29.56,SSE,157,0.0,-999.0,82,-99.99,,,0.00,Acu-Link.com,2013-03-23 11:02:00,
2013-03-23 07:18:00,24.4,20.3,29.57,SSE,157,0.0,-999.0,84,-99.99,,,0.00,Acu-Link.com,2013-03-23 11:18:00,
2013-03-23 07:33:00,25.0,21.1,29.58,SSE,157,0.0,-999.0,85,-99.99,,,0.00,Acu-Link.com,2013-03-23 11:33:00,
2013-03-23 07:48:00,25.9,21.7,29.58,SSE,157,0.0,-999.0,84,-99.99,,,0.00,Acu-Link.com,2013-03-23 11:48:00,
2013-03-23 08:03:00,27.3,22.0,29.58,South,180,0.0,-999.0,80,-99.99,,,0.00,Acu-Link.com,2013-03-23 12:03:00,
2013-03-23 08:18:00,27.9,22.2,29.58,NE,45,0.0,-999.0,79,-99.99,,,0.00,Acu-Link.com,2013-03-23 12:18:00,
2013-03-23 08:33:00,28.8,21.9,29.59,WNW,292,0.0,-999.0,75,-99.99,,,0.00,Acu-Link.com,2013-03-23 12:33:00,
2013-03-23 08:48:00,28.8,21.3,29.59,WNW,292,0.0,-999.0,73,-99.99,,,0.00,Acu-Link.com,2013-03-23 12:48:00,
2013-03-23 09:03:00,28.8,21.9,29.59,WNW,292,0.0,-999.0,75,-99.99,,,0.00,Acu-Link.com,2013-03-23 13:03:00,
2013-03-23 09:18:00,28.9,21.7,29.59,SW,225,0.0,-999.0,74,-99.99,,,0.00,Acu-Link.com,2013-03-23 13:18:00,
2013-03-23 09:34:00,30.4,22.1,29.58,SW,225,0.0,-999.0,71,-99.99,,,0.00,Acu-Link.com,2013-03-23 13:34:00,
2013-03-23 09:49:00,32.9,22.1,29.58,South,180,0.0,-999.0,64,-99.99,,,0.00,Acu-Link.com,2013-03-23 13:49:00,
2013-03-23 10:04:00,32.7,20.8,29.58,SW,225,0.0,-999.0,61,-99.99,,,0.00,Acu-Link.com,2013-03-23 14:04:00,
2013-03-23 10:19:00,35.6,20.6,29.57,South,180,0.0,-999.0,54,-99.99,,,0.00,Acu-Link.com,2013-03-23 14:19:00,
2013-03-23 10:34:00,35.8,20.4,29.57,ESE,112,0.0,-999.0,53,-99.99,,,0.00,Acu-Link.com,2013-03-23 14:34:00,
2013-03-23 10:49:00,37.0,21.0,29.56,SSW,202,0.0,-999.0,52,-99.99,,,0.00,Acu-Link.com,2013-03-23 14:49:00,
2013-03-23 11:04:00,36.9,20.0,29.56,SE,135,0.0,-999.0,50,-99.99,,,0.00,Acu-Link.com,2013-03-23 15:04:00,
2013-03-23 11:19:00,37.6,21.1,29.56,SSW,202,0.0,-999.0,51,-99.99,,,0.00,Acu-Link.com,2013-03-23 15:19:00,
2013-03-23 11:34:00,36.1,21.5,29.55,SSW,202,2.2,-999.0,55,-99.99,,,0.00,Acu-Link.com,2013-03-23 15:34:00,
2013-03-23 11:50:00,37.4,20.9,29.55,South,180,1.7,-999.0,51,-99.99,,,0.00,Acu-Link.com,2013-03-23 15:50:00,
2013-03-23 12:05:00,39.2,21.2,29.55,ESE,112,1.7,-999.0,48,-99.99,,,0.00,Acu-Link.com,2013-03-23 16:05:00,
2013-03-23 12:20:00,39.0,22.0,29.55,SSW,202,2.7,-999.0,50,-99.99,,,0.00,Acu-Link.com,2013-03-23 16:20:00,
2013-03-23 12:35:00,40.5,20.3,29.55,South,180,3.7,-999.0,44,-99.99,,,0.01,Acu-Link.com,2013-03-23 16:35:00,
2013-03-23 12:50:00,38.8,19.8,29.55,South,180,2.2,-999.0,46,-99.99,,,0.01,Acu-Link.com,2013-03-23 16:50:00,
2013-03-23 13:05:00,38.7,20.7,29.55,South,180,2.7,-999.0,48,-99.99,,,0.02,Acu-Link.com,2013-03-23 17:05:00,
2013-03-23 13:20:00,37.8,18.9,29.54,SW,225,3.7,-999.0,46,-99.99,,,0.03,Acu-Link.com,2013-03-23 17:20:00,
2013-03-23 13:35:00,37.4,20.5,29.55,South,180,3.2,-999.0,50,-99.99,,,0.03,Acu-Link.com,2013-03-23 17:35:00,
2013-03-23 13:50:00,37.0,21.0,29.55,South,180,3.2,-999.0,52,-99.99,,,0.04,Acu-Link.com,2013-03-23 17:50:00,
2013-03-23 14:21:00,37.4,19.0,29.56,South,180,5.3,-999.0,47,-99.99,,,0.05,Acu-Link.com,2013-03-23 18:21:00,
2013-03-23 14:36:00,37.8,18.9,29.57,South,180,2.7,-999.0,46,-99.99,,,0.05,Acu-Link.com,2013-03-23 18:36:00,
2013-03-23 14:51:00,37.0,19.2,29.57,SE,135,7.3,-999.0,48,-99.99,,,0.06,Acu-Link.com,2013-03-23 18:51:00,
2013-03-23 15:06:00,36.9,19.5,29.57,SSW,202,4.2,-999.0,49,-99.99,,,0.06,Acu-Link.com,2013-03-23 19:06:00,
2013-03-23 15:21:00,37.2,19.3,29.56,SE,135,2.7,-999.0,48,-99.99,,,0.07,Acu-Link.com,2013-03-23 19:21:00,
2013-03-23 15:37:00,37.8,20.4,29.57,South,180,2.2,-999.0,49,-99.99,,,0.07,Acu-Link.com,2013-03-23 19:37:00,
2013-03-23 15:52:00,37.4,19.5,29.57,South,180,5.8,-999.0,48,-99.99,,,0.07,Acu-Link.com,2013-03-23 19:52:00,
2013-03-23 16:07:00,37.2,19.3,29.57,NW,315,4.2,-999.0,48,-99.99,,,0.07,Acu-Link.com,2013-03-23 20:07:00,
2013-03-23 16:22:00,37.0,20.6,29.57,SW,225,2.2,-999.0,51,-99.99,,,0.07,Acu-Link.com,2013-03-23 20:22:00,
2013-03-23 16:37:00,36.3,19.0,29.57,SSW,202,2.7,-999.0,49,-99.99,,,0.07,Acu-Link.com,2013-03-23 20:37:00,
2013-03-23 16:52:00,36.0,20.5,29.58,South,180,2.2,-999.0,53,-99.99,,,0.07,Acu-Link.com,2013-03-23 20:52:00,
2013-03-23 17:07:00,35.1,20.6,29.59,SW,225,4.2,-999.0,55,-99.99,,,0.07,Acu-Link.com,2013-03-23 21:07:00,
2013-03-23 17:22:00,35.2,20.7,29.60,SSW,202,1.7,-999.0,55,-99.99,,,0.07,Acu-Link.com,2013-03-23 21:22:00,
2013-03-23 17:37:00,34.5,19.6,29.60,SSW,202,1.7,-999.0,54,-99.99,,,0.07,Acu-Link.com,2013-03-23 21:37:00,
2013-03-23 17:52:00,34.2,19.7,29.60,SW,225,3.7,-999.0,55,-99.99,,,0.07,Acu-Link.com,2013-03-23 21:52:00,
2013-03-23 18:08:00,34.2,21.4,29.61,SW,225,0.0,-999.0,59,-99.99,,,0.07,Acu-Link.com,2013-03-23 22:08:00,
2013-03-23 18:23:00,33.4,21.0,29.62,WNW,292,2.7,-999.0,60,-99.99,,,0.07,Acu-Link.com,2013-03-23 22:23:00,
2013-03-23 18:38:00,32.9,20.6,29.62,NW,315,2.2,-999.0,60,-99.99,,,0.07,Acu-Link.com,2013-03-23 22:38:00,
2013-03-23 18:53:00,32.5,20.6,29.62,SSE,157,0.0,-999.0,61,-99.99,,,0.07,Acu-Link.com,2013-03-23 22:53:00,
2013-03-23 19:08:00,32.0,20.5,29.63,South,180,1.7,-999.0,62,-99.99,,,0.07,Acu-Link.com,2013-03-23 23:08:00,
2013-03-23 19:23:00,31.5,20.4,29.64,WSW,247,2.7,-999.0,63,-99.99,,,0.07,Acu-Link.com,2013-03-23 23:23:00,
2013-03-23 19:39:00,31.5,21.5,29.64,SW,225,0.0,-999.0,66,-99.99,,,0.07,Acu-Link.com,2013-03-23 23:39:00,
2013-03-23 19:54:00,31.5,20.0,29.65,SW,225,0.0,-999.0,62,-99.99,,,0.07,Acu-Link.com,2013-03-23 23:54:00,
2013-03-23 20:09:00,31.1,21.4,29.66,SW,225,1.1,-999.0,67,-99.99,,,0.07,Acu-Link.com,2013-03-24 00:09:00,
2013-03-23 20:24:00,31.1,21.8,29.66,SSE,157,0.0,-999.0,68,-99.99,,,0.07,Acu-Link.com,2013-03-24 00:24:00,
2013-03-23 20:39:00,30.9,21.6,29.67,WSW,247,0.0,-999.0,68,-99.99,,,0.07,Acu-Link.com,2013-03-24 00:39:00,
2013-03-23 20:54:00,30.7,20.7,29.68,South,180,0.0,-999.0,66,-99.99,,,0.07,Acu-Link.com,2013-03-24 00:54:00,
2013-03-23 21:09:00,30.4,21.1,29.68,SSW,202,0.0,-999.0,68,-99.99,,,0.07,Acu-Link.com,2013-03-24 01:09:00,
2013-03-23 21:24:00,30.7,20.4,29.68,SSW,202,2.2,-999.0,65,-99.99,,,0.07,Acu-Link.com,2013-03-24 01:24:00,
2013-03-23 21:39:00,30.7,20.4,29.68,SSE,157,0.0,-999.0,65,-99.99,,,0.07,Acu-Link.com,2013-03-24 01:39:00,
2013-03-23 21:55:00,30.4,21.8,29.68,SSE,157,1.7,-999.0,70,-99.99,,,0.07,Acu-Link.com,2013-03-24 01:55:00,
2013-03-23 22:10:00,30.4,22.5,29.68,SSE,157,2.2,-999.0,72,-99.99,,,0.07,Acu-Link.com,2013-03-24 02:10:00,
2013-03-23 22:25:00,30.2,22.6,29.68,SSE,157,2.2,-999.0,73,-99.99,,,0.07,Acu-Link.com,2013-03-24 02:25:00,
2013-03-23 22:40:00,30.2,22.9,29.69,SSE,157,0.0,-999.0,74,-99.99,,,0.07,Acu-Link.com,2013-03-24 02:40:00,
2013-03-23 22:55:00,30.0,23.1,29.69,SSE,157,0.0,-999.0,75,-99.99,,,0.07,Acu-Link.com,2013-03-24 02:55:00,
2013-03-23 23:10:00,30.0,23.4,29.69,SSE,157,0.0,-999.0,76,-99.99,,,0.07,Acu-Link.com,2013-03-24 03:10:00,
2013-03-23 23:25:00,30.0,23.4,29.69,SSE,157,1.7,-999.0,76,-99.99,,,0.07,Acu-Link.com,2013-03-24 03:25:00,
2013-03-23 23:40:00,29.8,23.2,29.69,SSE,157,0.0,-999.0,76,-99.99,,,0.07,Acu-Link.com,2013-03-24 03:40:00,
2013-03-23 23:55:00,29.8,22.9,29.69,SSE,157,0.0,-999.0,75,-99.99,,,0.07,Acu-Link.com,2013-03-24 03:55:00,